Time;durP1;ratioP1;P1;durP2;ratioP2;P2;SDS_P1;SDS_P2;PMS_P1;PMS_P2;Temp;Humidity;BMP_temperature;BMP_pressure;BME280_temperature;BME280_humidity;BME280_pressure;Samples;Min_cycle;Max_cycle;Signal;HPM_P1;HPM_P2
2022/03/28 00:00:42;;;;;;;8.63;6.40;;;7.10;99.90;;;;;;4958363;29;20103;-56
2022/03/28 00:03:07;;;;;;;10.13;6.68;;;7.10;99.90;;;;;;4961366;28;20039;-57
2022/03/28 00:05:33;;;;;;;15.30;6.97;;;7.20;99.90;;;;;;4960164;29;20043;-58
2022/03/28 00:07:59;;;;;;;11.90;6.75;;;7.10;99.90;;;;;;4960457;29;20051;-57
2022/03/28 00:10:25;;;;;;;12.60;6.47;;;7.10;99.90;;;;;;4960813;28;20072;-57
2022/03/28 00:12:51;;;;;;;10.98;6.47;;;7.00;99.90;;;;;;4958401;29;20058;-57
2022/03/28 00:15:16;;;;;;;12.88;6.68;;;7.00;99.90;;;;;;4961362;28;20035;-57
2022/03/28 00:17:43;;;;;;;13.52;6.57;;;6.90;99.90;;;;;;4959714;29;20043;-57
2022/03/28 00:20:11;;;;;;;9.85;5.90;;;7.00;99.90;;;;;;4959738;29;20061;-57
2022/03/28 00:22:37;;;;;;;10.95;6.28;;;7.00;99.90;;;;;;4960036;28;20582;-57
2022/03/28 00:25:04;;;;;;;11.35;6.40;;;7.00;99.90;;;;;;4960345;28;20035;-57
2022/03/28 00:27:29;;;;;;;12.00;6.75;;;6.90;99.90;;;;;;4960669;28;20047;-57
2022/03/28 00:29:55;;;;;;;12.15;6.35;;;6.90;99.90;;;;;;4958255;29;20066;-57
2022/03/28 00:32:21;;;;;;;11.82;6.20;;;6.90;99.90;;;;;;4960864;29;20047;-58
2022/03/28 00:34:46;;;;;;;10.75;6.43;;;6.90;99.90;;;;;;4959512;28;20083;-58
2022/03/28 00:37:12;;;;;;;9.80;6.32;;;6.90;99.90;;;;;;4961015;28;20051;-57
2022/03/28 00:39:38;;;;;;;12.27;6.53;;;6.90;99.90;;;;;;4962302;29;20471;-57
2022/03/28 00:42:04;;;;;;;12.70;6.68;;;6.90;99.90;;;;;;4962621;29;20130;-57
2022/03/28 00:44:31;;;;;;;13.48;6.53;;;6.90;99.90;;;;;;4963943;28;20044;-57
2022/03/28 00:46:58;;;;;;;10.60;6.40;;;6.80;99.90;;;;;;4962972;28;20216;-58
2022/03/28 00:49:24;;;;;;;10.30;6.70;;;6.90;99.90;;;;;;4964113;29;20047;-58
2022/03/28 00:51:50;;;;;;;10.65;7.00;;;6.80;99.90;;;;;;4962764;28;20561;-57
2022/03/28 00:54:16;;;;;;;12.38;7.10;;;6.90;99.90;;;;;;4964076;28;20050;-57
2022/03/28 00:56:45;;;;;;;13.82;7.30;;;6.90;99.90;;;;;;4962839;29;20320;-57
2022/03/28 00:59:11;;;;;;;12.52;7.15;;;6.80;99.90;;;;;;4962233;29;20046;-57
2022/03/28 01:01:37;;;;;;;11.50;7.05;;;6.90;99.90;;;;;;4963633;29;20058;-57
2022/03/28 01:04:05;;;;;;;11.45;7.30;;;6.90;99.90;;;;;;4962616;29;20035;-57
2022/03/28 01:06:32;;;;;;;11.88;6.68;;;6.80;99.90;;;;;;4963926;28;20047;-57
2022/03/28 01:08:58;;;;;;;11.85;7.32;;;6.70;99.90;;;;;;4961250;29;20051;-57
2022/03/28 01:11:26;;;;;;;10.65;6.80;;;6.70;99.90;;;;;;4963876;29;20055;-57
2022/03/28 01:13:53;;;;;;;10.85;6.97;;;6.80;99.90;;;;;;4962520;28;20071;-57
2022/03/28 01:16:19;;;;;;;13.52;7.95;;;6.70;99.90;;;;;;4961686;29;20118;-57
2022/03/28 01:18:49;;;;;;;12.35;7.32;;;6.70;99.90;;;;;;4963450;28;20448;-57
2022/03/28 01:21:17;;;;;;;11.73;8.35;;;6.70;99.90;;;;;;4962448;28;20055;-55
2022/03/28 01:23:43;;;;;;;14.38;8.13;;;6.70;99.90;;;;;;4962364;29;20059;-57
2022/03/28 01:26:09;;;;;;;15.85;9.63;;;6.70;99.90;;;;;;4962296;29;20122;-57
2022/03/28 01:28:35;;;;;;;15.93;9.15;;;6.70;99.90;;;;;;4963666;29;20058;-57
2022/03/28 01:31:00;;;;;;;16.13;9.68;;;6.70;99.90;;;;;;4962411;29;20047;-57
2022/03/28 01:33:26;;;;;;;13.95;8.98;;;6.80;99.90;;;;;;4962704;28;20107;-57
2022/03/28 01:35:52;;;;;;;14.45;8.95;;;6.70;99.90;;;;;;4962702;29;20504;-57
2022/03/28 01:38:19;;;;;;;14.52;8.82;;;6.70;99.90;;;;;;4962286;29;20564;-57
2022/03/28 01:40:51;;;;;;;18.13;10.45;;;6.70;99.90;;;;;;4963176;28;20583;-56
2022/03/28 01:43:18;;;;;;;15.90;9.98;;;6.80;99.90;;;;;;4960708;28;20062;-57
2022/03/28 01:45:44;;;;;;;17.20;9.88;;;6.80;99.90;;;;;;4962890;28;20051;-57
2022/03/28 01:48:11;;;;;;;13.35;9.30;;;6.70;99.90;;;;;;4962045;28;20047;-57
2022/03/28 01:50:37;;;;;;;16.13;9.82;;;6.80;99.90;;;;;;4962473;28;20499;-57
2022/03/28 01:53:03;;;;;;;15.85;9.35;;;6.70;99.90;;;;;;4962649;29;20043;-57
2022/03/28 01:55:29;;;;;;;15.40;9.68;;;6.60;99.90;;;;;;4961873;28;20054;-58
2022/03/28 01:57:56;;;;;;;12.13;9.40;;;6.70;99.90;;;;;;4961751;29;20043;-57
2022/03/28 02:00:24;;;;;;;18.27;8.90;;;6.70;99.90;;;;;;4961713;28;20059;-57
2022/03/28 02:02:50;;;;;;;14.40;9.20;;;6.70;99.90;;;;;;4963207;28;20082;-57
2022/03/28 02:05:17;;;;;;;12.95;9.15;;;6.70;99.90;;;;;;4960479;29;20047;-57
2022/03/28 02:07:47;;;;;;;13.57;8.98;;;6.70;99.90;;;;;;4962274;28;20046;-57
2022/03/28 02:10:16;;;;;;;13.65;8.50;;;6.60;99.90;;;;;;4962448;28;20051;-57
2022/03/28 02:12:43;;;;;;;14.60;8.52;;;6.70;99.90;;;;;;4959747;29;20058;-57
2022/03/28 02:15:10;;;;;;;11.35;8.05;;;6.80;99.90;;;;;;4962844;28;20043;-57
2022/03/28 02:17:39;;;;;;;12.77;7.95;;;6.80;99.90;;;;;;4959844;29;20439;-57
2022/03/28 02:20:08;;;;;;;13.32;8.35;;;6.70;99.90;;;;;;4962712;28;20051;-57
2022/03/28 02:22:37;;;;;;;15.15;8.27;;;6.70;99.90;;;;;;4961415;28;20051;-57
2022/03/28 02:25:05;;;;;;;14.07;8.05;;;6.70;99.90;;;;;;4961831;28;20590;-57
2022/03/28 02:27:31;;;;;;;12.30;7.50;;;6.70;99.90;;;;;;4962271;28;20436;-57
2022/03/28 02:29:57;;;;;;;11.73;8.00;;;6.70;99.90;;;;;;4959681;28;20055;-57
2022/03/28 02:32:23;;;;;;;11.98;7.82;;;6.70;99.90;;;;;;4962378;29;20135;-57
2022/03/28 02:34:49;;;;;;;12.60;8.05;;;6.60;99.90;;;;;;4961022;28;20428;-57
2022/03/28 02:37:15;;;;;;;15.10;7.97;;;6.60;99.90;;;;;;4960898;29;20044;-58
2022/03/28 02:39:40;;;;;;;12.43;7.20;;;6.70;99.90;;;;;;4961412;29;20096;-57
2022/03/28 02:42:07;;;;;;;10.05;7.57;;;6.50;99.90;;;;;;4961351;29;20048;-57
2022/03/28 02:44:32;;;;;;;10.30;8.10;;;6.50;99.90;;;;;;4944690;29;20090;-57
2022/03/28 02:46:58;;;;;;;12.00;7.55;;;6.50;99.90;;;;;;4960659;29;20079;-56
2022/03/28 02:49:24;;;;;;;13.60;7.72;;;6.80;99.90;;;;;;4961996;28;20047;-57
2022/03/28 02:51:50;;;;;;;12.00;7.75;;;6.60;99.90;;;;;;4960751;29;20054;-58
2022/03/28 02:54:16;;;;;;;11.73;8.18;;;6.40;99.90;;;;;;4962071;28;20367;-57
2022/03/28 02:56:41;;;;;;;12.70;8.25;;;6.60;99.90;;;;;;4960803;29;20050;-57
2022/03/28 02:59:07;;;;;;;11.57;6.97;;;6.60;99.90;;;;;;4961455;29;20054;-57
2022/03/28 03:01:33;;;;;;;12.50;7.30;;;6.50;99.90;;;;;;4960911;28;20054;-58
2022/03/28 03:03:59;;;;;;;10.43;6.40;;;6.50;99.90;;;;;;4960646;28;20114;-57
2022/03/28 03:06:25;;;;;;;10.70;7.50;;;6.50;99.90;;;;;;4961971;28;20067;-59
2022/03/28 03:08:50;;;;;;;13.13;7.63;;;6.40;99.90;;;;;;4960493;28;20055;-57
2022/03/28 03:11:17;;;;;;;14.48;7.57;;;6.50;99.90;;;;;;4961835;28;20101;-57
2022/03/28 03:13:43;;;;;;;12.25;8.50;;;6.50;99.90;;;;;;4959242;29;20101;-56
2022/03/28 03:16:09;;;;;;;14.38;8.32;;;6.60;99.90;;;;;;4961078;28;20047;-57
2022/03/28 03:18:34;;;;;;;12.43;8.32;;;6.50;99.90;;;;;;4960982;29;20047;-57
2022/03/28 03:21:01;;;;;;;12.73;8.23;;;6.50;99.90;;;;;;4960547;28;20054;-57
2022/03/28 03:23:27;;;;;;;12.13;7.72;;;6.60;99.90;;;;;;4959781;29;20140;-57
2022/03/28 03:25:56;;;;;;;13.32;8.23;;;6.50;99.90;;;;;;4960358;28;20043;-58
2022/03/28 03:28:22;;;;;;;13.38;8.48;;;6.50;99.90;;;;;;4960111;29;20183;-57
2022/03/28 03:30:48;;;;;;;13.52;8.50;;;6.60;99.90;;;;;;4960432;28;20043;-57
2022/03/28 03:33:15;;;;;;;15.95;9.05;;;6.60;99.90;;;;;;4960954;29;20059;-57
2022/03/28 03:35:41;;;;;;;16.42;9.98;;;6.50;99.90;;;;;;4960885;28;20051;-57
2022/03/28 03:38:07;;;;;;;13.05;8.23;;;6.60;99.90;;;;;;4960260;28;20067;-57
2022/03/28 03:40:32;;;;;;;15.55;8.63;;;6.50;99.90;;;;;;4960030;29;20051;-57
2022/03/28 03:42:58;;;;;;;14.45;8.85;;;6.60;99.90;;;;;;4960051;29;20059;-57
2022/03/28 03:45:24;;;;;;;15.52;9.30;;;6.60;99.90;;;;;;4961431;29;20054;-57
2022/03/28 03:47:51;;;;;;;17.98;10.25;;;6.60;99.90;;;;;;4959981;29;20067;-56
2022/03/28 03:50:17;;;;;;;16.10;9.32;;;6.50;99.90;;;;;;4961430;28;20047;-57
2022/03/28 03:52:43;;;;;;;16.38;9.02;;;6.50;99.90;;;;;;4960698;29;20085;-57
2022/03/28 03:55:09;;;;;;;16.00;9.55;;;6.50;99.90;;;;;;4960564;28;20055;-57
2022/03/28 03:57:35;;;;;;;17.55;9.55;;;6.60;99.90;;;;;;4961114;28;20051;-57
2022/03/28 04:00:00;;;;;;;14.75;9.27;;;6.50;99.90;;;;;;4960067;29;20074;-57
2022/03/28 04:02:26;;;;;;;18.15;9.30;;;6.50;99.90;;;;;;4961404;28;20051;-57
2022/03/28 04:04:51;;;;;;;16.13;9.00;;;6.50;99.90;;;;;;4959948;29;20099;-57
2022/03/28 04:07:17;;;;;;;14.95;8.82;;;6.50;99.90;;;;;;4961128;29;20082;-57
2022/03/28 04:09:43;;;;;;;13.77;8.43;;;6.50;99.90;;;;;;4960249;29;20047;-58
2022/03/28 04:12:09;;;;;;;15.13;8.35;;;6.40;99.90;;;;;;4960701;28;20044;-57
2022/03/28 04:14:35;;;;;;;12.27;7.07;;;6.50;99.90;;;;;;4963230;29;20062;-57
2022/03/28 04:17:01;;;;;;;12.55;7.32;;;6.50;99.90;;;;;;4963431;29;20592;-57
2022/03/28 04:19:27;;;;;;;12.20;7.00;;;6.50;99.90;;;;;;4964835;29;20078;-57
2022/03/28 04:21:52;;;;;;;13.10;7.35;;;6.40;99.90;;;;;;4961945;28;20047;-57
2022/03/28 04:24:18;;;;;;;10.70;5.50;;;6.40;99.90;;;;;;4964839;28;20105;-57
2022/03/28 04:26:44;;;;;;;10.93;5.00;;;6.30;99.90;;;;;;4963946;28;20046;-57
2022/03/28 04:29:10;;;;;;;9.85;4.70;;;6.40;99.90;;;;;;4964184;28;20067;-56
2022/03/28 04:31:40;;;;;;;9.23;4.47;;;6.30;99.90;;;;;;4964303;29;20491;-57
2022/03/28 04:34:07;;;;;;;11.18;4.75;;;6.30;99.90;;;;;;4963245;28;20040;-57
2022/03/28 04:36:33;;;;;;;9.18;4.32;;;6.20;99.90;;;;;;4964543;28;20039;-57
2022/03/28 04:38:59;;;;;;;8.75;4.07;;;6.10;99.90;;;;;;4963067;28;20047;-57
2022/03/28 04:41:25;;;;;;;8.10;4.05;;;6.20;99.90;;;;;;4964542;28;20133;-57
2022/03/28 04:43:51;;;;;;;7.20;3.33;;;6.10;99.90;;;;;;4963559;28;20383;-57
2022/03/28 04:46:17;;;;;;;7.00;2.92;;;6.00;99.90;;;;;;4962429;29;20043;-57
2022/03/28 04:48:43;;;;;;;7.82;3.28;;;6.00;99.90;;;;;;4963838;28;20066;-57
2022/03/28 04:51:09;;;;;;;6.93;3.22;;;5.90;99.90;;;;;;4961595;29;20054;-57
2022/03/28 04:53:35;;;;;;;6.53;2.60;;;5.90;99.90;;;;;;4964213;28;20067;-57
2022/03/28 04:56:01;;;;;;;7.85;3.05;;;6.00;99.90;;;;;;4962453;29;20039;-58
2022/03/28 04:58:27;;;;;;;8.07;2.72;;;5.90;99.90;;;;;;4964342;28;20531;-57
2022/03/28 05:00:53;;;;;;;7.53;3.05;;;5.90;99.90;;;;;;4963049;29;20062;-57
2022/03/28 05:03:19;;;;;;;7.07;3.22;;;5.80;99.90;;;;;;4963481;29;20055;-57
2022/03/28 05:05:45;;;;;;;7.15;2.83;;;5.90;99.90;;;;;;4963452;29;20060;-58
2022/03/28 05:08:11;;;;;;;6.13;2.42;;;6.00;99.90;;;;;;4961401;29;20051;-58
2022/03/28 05:10:36;;;;;;;6.93;3.08;;;5.80;99.90;;;;;;4962318;29;20074;-58
2022/03/28 05:13:02;;;;;;;8.13;3.20;;;5.80;99.90;;;;;;4962490;29;20051;-57
2022/03/28 05:15:28;;;;;;;6.65;2.88;;;6.00;99.90;;;;;;4963862;29;20047;-57
2022/03/28 05:17:54;;;;;;;10.55;3.80;;;5.90;99.90;;;;;;4960756;28;20039;-57
2022/03/28 05:20:19;;;;;;;8.65;3.75;;;6.00;99.90;;;;;;4962235;29;20049;-57
2022/03/28 05:22:45;;;;;;;12.20;4.57;;;5.90;99.90;;;;;;4962989;28;20061;-57
2022/03/28 05:25:11;;;;;;;14.63;7.25;;;5.90;99.90;;;;;;4960738;28;20031;-57
2022/03/28 05:27:46;;;;;;;10.50;5.15;;;6.00;99.90;;;;;;4963348;29;20078;-57
2022/03/28 05:30:13;;;;;;;16.27;8.77;;;5.90;99.90;;;;;;4962345;28;20047;-57
2022/03/28 05:32:39;;;;;;;14.10;9.20;;;6.00;99.90;;;;;;4962184;29;20051;-58
2022/03/28 05:35:06;;;;;;;9.88;5.20;;;5.90;99.90;;;;;;4959754;28;20059;-57
2022/03/28 05:37:32;;;;;;;12.38;5.93;;;6.10;99.90;;;;;;4959048;28;20574;-57
2022/03/28 05:39:58;;;;;;;10.90;5.82;;;6.00;99.90;;;;;;4959335;29;20105;-59
2022/03/28 05:42:24;;;;;;;11.63;5.80;;;6.00;99.90;;;;;;4958571;28;20059;-58
2022/03/28 05:44:50;;;;;;;11.70;6.18;;;6.00;99.90;;;;;;4959538;28;20082;-57
2022/03/28 05:47:15;;;;;;;10.80;5.80;;;6.10;99.90;;;;;;4957525;29;20339;-57
2022/03/28 05:49:41;;;;;;;11.85;5.80;;;6.10;99.90;;;;;;4959708;29;20050;-57
2022/03/28 05:52:07;;;;;;;10.93;6.13;;;5.90;99.90;;;;;;4958233;29;20035;-57
2022/03/28 05:54:33;;;;;;;11.45;6.40;;;6.00;99.90;;;;;;4959168;29;20047;-57
2022/03/28 05:56:59;;;;;;;12.48;6.53;;;5.90;99.90;;;;;;4958181;29;20111;-57
2022/03/28 05:59:25;;;;;;;11.38;6.28;;;5.90;99.90;;;;;;4957839;28;20039;-58
2022/03/28 06:01:51;;;;;;;11.95;6.65;;;6.00;99.90;;;;;;4958961;29;20099;-56
2022/03/28 06:04:17;;;;;;;12.88;7.78;;;6.00;99.90;;;;;;4957508;29;20050;-57
2022/03/28 06:06:43;;;;;;;14.80;8.05;;;6.00;99.90;;;;;;4957520;29;20529;-57
2022/03/28 06:09:09;;;;;;;12.82;7.85;;;6.00;99.90;;;;;;4957844;28;20057;-57
2022/03/28 06:11:35;;;;;;;12.10;7.50;;;6.10;99.90;;;;;;4957177;29;20074;-58
2022/03/28 06:14:01;;;;;;;14.93;9.65;;;6.10;99.90;;;;;;4957062;29;20047;-57
2022/03/28 06:16:27;;;;;;;12.05;7.47;;;6.00;99.90;;;;;;4957701;28;20062;-57
2022/03/28 06:18:53;;;;;;;11.48;7.03;;;6.00;99.90;;;;;;4958646;28;20079;-57
2022/03/28 06:21:19;;;;;;;12.02;6.70;;;6.00;99.90;;;;;;4957594;29;20062;-58
2022/03/28 06:23:45;;;;;;;10.90;6.07;;;6.00;99.90;;;;;;4958709;28;20101;-57
2022/03/28 06:26:11;;;;;;;10.77;7.20;;;6.20;99.90;;;;;;4957474;29;20043;-57
2022/03/28 06:28:39;;;;;;;11.45;7.07;;;6.20;99.90;;;;;;4958750;28;20047;-57
2022/03/28 06:31:06;;;;;;;11.48;8.15;;;6.20;99.90;;;;;;4957539;28;20062;-57
2022/03/28 06:33:31;;;;;;;13.43;7.03;;;6.30;99.90;;;;;;4956450;29;20086;-57
2022/03/28 06:35:57;;;;;;;9.98;6.47;;;6.30;99.90;;;;;;4955692;28;20051;-56
2022/03/28 06:38:23;;;;;;;10.02;7.50;;;6.30;99.90;;;;;;4955966;29;20530;-58
2022/03/28 06:40:49;;;;;;;12.10;7.03;;;6.40;99.90;;;;;;4958316;29;20058;-57
2022/03/28 06:43:14;;;;;;;12.38;7.68;;;6.40;99.90;;;;;;4957045;28;20051;-57
2022/03/28 06:45:40;;;;;;;14.10;8.02;;;6.40;99.90;;;;;;4958185;28;20472;-57
2022/03/28 06:48:06;;;;;;;11.98;7.65;;;6.30;99.90;;;;;;4955611;29;20075;-57
2022/03/28 06:50:34;;;;;;;12.95;8.25;;;6.40;99.90;;;;;;4957933;28;20130;-57
2022/03/28 06:53:01;;;;;;;12.18;7.70;;;6.50;99.90;;;;;;4957808;28;20047;-58
2022/03/28 06:55:29;;;;;;;14.02;8.35;;;6.40;99.90;;;;;;4956847;28;20114;-57
2022/03/28 06:57:55;;;;;;;13.63;8.63;;;6.50;99.90;;;;;;4956768;29;20055;-57
2022/03/28 07:00:21;;;;;;;12.82;7.75;;;6.40;99.90;;;;;;4956793;29;20114;-57
2022/03/28 07:02:46;;;;;;;12.65;8.50;;;6.40;99.90;;;;;;4958208;29;20039;-57
2022/03/28 07:05:12;;;;;;;14.35;7.18;;;6.50;99.90;;;;;;4957012;29;20043;-56
2022/03/28 07:07:39;;;;;;;10.68;6.70;;;6.40;99.90;;;;;;4957354;29;20050;-57
2022/03/28 07:10:06;;;;;;;11.20;6.65;;;6.50;99.90;;;;;;4957610;28;20140;-57
2022/03/28 07:12:31;;;;;;;12.55;7.60;;;6.60;99.90;;;;;;4938573;28;20055;-56
2022/03/28 07:14:57;;;;;;;11.90;6.68;;;6.60;99.90;;;;;;4956595;29;20050;-57
2022/03/28 07:17:23;;;;;;;13.05;6.78;;;6.60;99.90;;;;;;4956266;29;20044;-57
2022/03/28 07:19:48;;;;;;;11.25;6.60;;;6.60;99.90;;;;;;4957900;29;20138;-57
2022/03/28 07:22:14;;;;;;;11.52;7.15;;;6.70;99.90;;;;;;4956272;28;20040;-57
2022/03/28 07:24:40;;;;;;;14.00;7.80;;;6.70;99.90;;;;;;4957083;29;20043;-57
2022/03/28 07:27:06;;;;;;;14.05;7.40;;;6.70;99.90;;;;;;4955947;29;20414;-57
2022/03/28 07:29:32;;;;;;;12.65;7.43;;;6.80;99.90;;;;;;4956707;29;20066;-57
2022/03/28 07:31:57;;;;;;;10.50;7.45;;;6.80;99.90;;;;;;4956224;29;20086;-58
2022/03/28 07:34:29;;;;;;;13.07;7.47;;;6.80;99.90;;;;;;4955857;28;20132;-57
2022/03/28 07:36:56;;;;;;;12.20;7.30;;;6.80;99.90;;;;;;4957741;28;20368;-57
2022/03/28 07:39:22;;;;;;;11.07;7.63;;;6.80;99.90;;;;;;4956724;28;20078;-57
2022/03/28 07:41:50;;;;;;;11.95;7.20;;;6.90;99.90;;;;;;4957281;29;20047;-57
2022/03/28 07:44:16;;;;;;;12.98;7.95;;;7.00;99.90;;;;;;4957116;28;20047;-57
2022/03/28 07:46:44;;;;;;;12.10;7.78;;;6.80;99.90;;;;;;4956055;29;20083;-57
2022/03/28 07:49:13;;;;;;;11.63;7.63;;;6.80;99.90;;;;;;4961476;28;20047;-57
2022/03/28 07:51:39;;;;;;;11.55;7.85;;;7.00;99.90;;;;;;4960480;28;20048;-57
2022/03/28 07:54:05;;;;;;;12.18;8.23;;;7.00;99.90;;;;;;4961603;29;20108;-57
2022/03/28 07:56:31;;;;;;;11.30;7.80;;;7.00;99.90;;;;;;4960009;28;20126;-57
2022/03/28 07:58:58;;;;;;;15.27;7.82;;;7.00;99.90;;;;;;4960655;28;20039;-58
2022/03/28 08:01:24;;;;;;;10.68;7.22;;;7.10;99.90;;;;;;4960895;28;20062;-57
2022/03/28 08:03:50;;;;;;;10.77;8.00;;;7.10;99.90;;;;;;4960100;29;20329;-57
2022/03/28 08:06:16;;;;;;;12.07;7.72;;;7.10;99.90;;;;;;4961325;29;20040;-57
2022/03/28 08:08:42;;;;;;;14.15;8.27;;;7.10;99.90;;;;;;4959647;28;20058;-57
2022/03/28 08:11:08;;;;;;;12.93;7.82;;;7.20;99.90;;;;;;4960617;29;20051;-56
2022/03/28 08:13:36;;;;;;;16.52;9.15;;;7.30;99.90;;;;;;4959891;28;20039;-57
2022/03/28 08:16:03;;;;;;;12.40;7.93;;;7.30;99.90;;;;;;4960324;28;20039;-57
2022/03/28 08:18:30;;;;;;;16.00;8.75;;;7.30;99.90;;;;;;4960336;28;20106;-57
2022/03/28 08:20:56;;;;;;;14.90;8.85;;;7.40;99.90;;;;;;4959890;28;20051;-56
2022/03/28 08:23:22;;;;;;;13.10;9.23;;;7.40;99.90;;;;;;4960336;28;20055;-57
2022/03/28 08:25:51;;;;;;;13.90;9.13;;;7.40;99.90;;;;;;4947359;28;20522;-58
2022/03/28 08:28:17;;;;;;;15.32;9.63;;;7.50;99.90;;;;;;4941962;29;20079;-57
2022/03/28 08:30:43;;;;;;;13.48;9.07;;;7.40;99.90;;;;;;4944627;28;20048;-57
2022/03/28 08:33:09;;;;;;;18.33;9.68;;;7.40;99.90;;;;;;4946863;29;20059;-57
2022/03/28 08:35:35;;;;;;;11.13;8.35;;;7.40;99.90;;;;;;4940466;29;20059;-57
2022/03/28 08:38:00;;;;;;;13.85;9.35;;;7.30;99.90;;;;;;4950244;29;20047;-58
2022/03/28 08:40:26;;;;;;;14.43;9.20;;;7.50;99.90;;;;;;4960596;29;20067;-58
2022/03/28 08:42:52;;;;;;;15.65;9.82;;;7.40;99.90;;;;;;4959282;29;20442;-58
2022/03/28 08:45:18;;;;;;;13.65;9.77;;;7.40;99.90;;;;;;4960703;28;20058;-58
2022/03/28 08:47:49;;;;;;;15.48;10.43;;;7.60;99.90;;;;;;4959087;28;20632;-57
2022/03/28 08:50:15;;;;;;;15.27;9.50;;;7.50;99.90;;;;;;4960406;28;20063;-58
2022/03/28 08:52:42;;;;;;;14.60;9.68;;;7.60;99.90;;;;;;4959874;29;20051;-57
2022/03/28 08:55:09;;;;;;;15.18;10.30;;;7.50;99.90;;;;;;4959543;29;20371;-58
2022/03/28 08:57:35;;;;;;;15.02;10.48;;;7.60;99.90;;;;;;4960253;28;20103;-58
2022/03/28 09:00:04;;;;;;;14.63;10.32;;;7.70;99.90;;;;;;4957800;28;20078;-58
2022/03/28 09:02:46;;;;;;;16.70;10.85;;;7.60;99.90;;;;;;4960561;28;20043;-58
2022/03/28 09:05:15;;;;;;;19.77;10.38;;;7.70;99.90;;;;;;4959259;29;20055;-58
2022/03/28 09:07:42;;;;;;;16.60;10.65;;;7.70;99.90;;;;;;4957990;29;20515;-56
2022/03/28 09:10:14;;;;;;;15.95;11.75;;;7.70;99.90;;;;;;4959919;28;20047;-58
2022/03/28 09:12:57;;;;;;;15.82;10.73;;;7.60;99.90;;;;;;4958432;28;20110;-58
2022/03/28 09:15:23;;;;;;;17.50;11.98;;;7.80;99.90;;;;;;4960347;28;20054;-58
2022/03/28 09:17:56;;;;;;;15.90;10.77;;;7.90;99.90;;;;;;4957399;29;20054;-58
2022/03/28 09:20:23;;;;;;;16.90;11.20;;;7.80;99.90;;;;;;4959166;28;20043;-58
2022/03/28 09:22:49;;;;;;;16.92;10.95;;;8.00;99.90;;;;;;4956909;29;20047;-58
2022/03/28 09:25:17;;;;;;;17.60;11.25;;;8.00;99.90;;;;;;4958887;29;20219;-58
2022/03/28 09:27:44;;;;;;;15.95;12.38;;;8.00;99.90;;;;;;4963195;29;20077;-58
2022/03/28 09:30:12;;;;;;;18.75;12.02;;;8.20;99.90;;;;;;4959876;29;20094;-58
2022/03/28 09:32:47;;;;;;;15.48;12.45;;;8.40;99.90;;;;;;4963341;29;20055;-58
2022/03/28 09:35:19;;;;;;;16.00;11.73;;;8.40;99.90;;;;;;4960759;29;20063;-58
2022/03/28 09:38:03;;;;;;;18.27;13.30;;;8.30;99.90;;;;;;4962366;28;20047;-57
2022/03/28 09:40:42;;;;;;;16.67;11.40;;;8.20;99.90;;;;;;4962813;28;20054;-58
2022/03/28 09:43:30;;;;;;;18.05;13.02;;;8.40;99.90;;;;;;4961867;28;20057;-58
2022/03/28 09:45:58;;;;;;;18.73;12.63;;;8.40;99.90;;;;;;4962361;28;20075;-57
2022/03/28 09:48:28;;;;;;;18.83;12.45;;;8.50;99.90;;;;;;4961393;29;20090;-57
2022/03/28 09:51:04;;;;;;;18.52;13.18;;;8.50;99.90;;;;;;4960234;29;20051;-58
2022/03/28 09:53:37;;;;;;;17.45;12.82;;;8.60;99.90;;;;;;4962632;28;20047;-58
2022/03/28 09:56:09;;;;;;;15.25;12.23;;;8.60;99.90;;;;;;4961530;28;20055;-58
2022/03/28 09:58:56;;;;;;;19.87;13.60;;;8.70;99.90;;;;;;4962530;28;20043;-58
2022/03/28 10:01:35;;;;;;;17.42;12.55;;;8.70;99.90;;;;;;4960822;29;20074;-58
2022/03/28 10:04:05;;;;;;;18.67;12.13;;;8.60;99.90;;;;;;4960996;28;20081;-57
2022/03/28 10:06:32;;;;;;;18.00;13.15;;;8.80;99.90;;;;;;4962863;28;20098;-57
2022/03/28 10:08:58;;;;;;;17.27;13.20;;;8.80;99.90;;;;;;4961365;28;20050;-57
2022/03/28 10:11:26;;;;;;;18.65;13.75;;;8.70;99.90;;;;;;4960920;28;20040;-58
2022/03/28 10:13:52;;;;;;;18.55;13.60;;;8.80;99.90;;;;;;4961583;28;20160;-57
2022/03/28 10:16:18;;;;;;;18.10;13.15;;;8.90;99.90;;;;;;4960713;28;20047;-57
2022/03/28 10:18:45;;;;;;;18.77;12.63;;;8.70;99.90;;;;;;4960517;29;20047;-57
2022/03/28 10:21:30;;;;;;;18.42;12.85;;;8.90;99.90;;;;;;4954189;28;20051;-57
2022/03/28 10:24:13;;;;;;;18.25;13.25;;;9.00;99.90;;;;;;4954573;29;20052;-58
2022/03/28 10:26:51;;;;;;;19.95;12.35;;;8.90;99.90;;;;;;4952044;28;20092;-58
2022/03/28 10:29:19;;;;;;;16.50;12.48;;;9.10;99.90;;;;;;4948068;28;20408;-57
2022/03/28 10:31:57;;;;;;;16.52;12.63;;;9.10;99.90;;;;;;4941516;29;20099;-57
2022/03/28 10:34:56;;;;;;;15.20;11.57;;;9.20;99.90;;;;;;4941296;29;20091;-57
2022/03/28 10:37:39;;;;;;;19.88;13.38;;;9.40;99.90;;;;;;4941917;29;20075;-57
2022/03/28 10:40:18;;;;;;;20.80;12.68;;;9.30;99.90;;;;;;4952181;28;20055;-57
2022/03/28 10:42:47;;;;;;;18.08;13.73;;;9.30;99.90;;;;;;4946118;29;20103;-58
2022/03/28 10:45:19;;;;;;;18.15;13.07;;;9.40;99.90;;;;;;4954444;29;20057;-58
2022/03/28 10:47:55;;;;;;;18.30;13.13;;;9.60;99.90;;;;;;4960377;28;20039;-57
2022/03/28 10:50:32;;;;;;;18.50;13.02;;;9.60;99.90;;;;;;4944145;29;20048;-57
2022/03/28 10:53:08;;;;;;;16.88;12.57;;;9.60;99.90;;;;;;4960350;29;20091;-58
2022/03/28 10:55:43;;;;;;;20.15;12.32;;;9.50;99.90;;;;;;4960365;29;20043;-57
2022/03/28 10:58:23;;;;;;;17.70;12.85;;;9.60;99.90;;;;;;4961887;29;20050;-57
2022/03/28 11:01:08;;;;;;;19.45;12.32;;;9.70;99.90;;;;;;4960854;29;20047;-57
2022/03/28 11:04:07;;;;;;;18.48;12.15;;;9.80;99.90;;;;;;4959637;29;20090;-57
2022/03/28 11:06:59;;;;;;;17.08;12.50;;;9.90;99.90;;;;;;4960711;29;20047;-58
2022/03/28 11:09:45;;;;;;;19.70;13.20;;;9.80;99.90;;;;;;4960445;28;20070;-57
2022/03/28 11:12:11;;;;;;;21.40;12.75;;;9.80;99.90;;;;;;4960018;28;20389;-57
2022/03/28 11:14:57;;;;;;;16.48;12.10;;;9.80;99.90;;;;;;4961358;29;20077;-57
2022/03/28 11:17:36;;;;;;;17.83;12.68;;;10.00;99.90;;;;;;4958575;29;20047;-57
2022/03/28 11:20:12;;;;;;;18.05;12.77;;;10.00;99.90;;;;;;4960109;29;20055;-57
2022/03/28 11:22:49;;;;;;;16.52;12.95;;;10.10;99.90;;;;;;4960201;28;20110;-57
2022/03/28 11:25:34;;;;;;;17.27;12.25;;;10.00;99.90;;;;;;4960267;29;20051;-57
2022/03/28 11:28:06;;;;;;;19.48;12.75;;;10.10;99.90;;;;;;4961484;28;20050;-57
2022/03/28 11:30:32;;;;;;;18.98;13.43;;;10.20;99.90;;;;;;4959858;29;20047;-57
2022/03/28 11:32:58;;;;;;;18.60;13.40;;;10.40;99.90;;;;;;4959510;28;20105;-58
2022/03/28 11:35:24;;;;;;;16.85;12.18;;;10.40;99.90;;;;;;4960407;29;20052;-58
2022/03/28 11:37:50;;;;;;;22.65;14.38;;;10.40;99.90;;;;;;4960267;28;20039;-58
2022/03/28 11:40:17;;;;;;;16.48;12.30;;;10.40;99.90;;;;;;4960951;28;20063;-58
2022/03/28 11:42:49;;;;;;;16.65;12.02;;;10.30;99.90;;;;;;4942347;29;20055;-58
2022/03/28 11:45:15;;;;;;;;;;;10.60;99.90;;;;;;4960799;29;20052;-57
2022/03/28 11:47:50;;;;;;;18.38;12.40;;;10.60;99.90;;;;;;4959218;28;19922;-57
2022/03/28 11:50:16;;;;;;;19.75;13.20;;;10.30;99.90;;;;;;4957172;28;20043;-57
2022/03/28 11:52:50;;;;;;;18.08;12.70;;;10.30;99.90;;;;;;4948736;29;20124;-59
2022/03/28 11:55:22;;;;;;;18.08;12.85;;;10.50;99.90;;;;;;4949667;28;20027;-58
2022/03/28 12:00:39;;;;;;;20.67;12.95;;;10.70;99.90;;;;;;4948581;29;20085;-57
2022/03/28 12:03:04;;;;;;;19.38;13.80;;;10.50;99.90;;;;;;4948576;29;20584;-56
2022/03/28 12:05:31;;;;;;;19.38;13.50;;;10.60;99.90;;;;;;4949902;29;20067;-56
2022/03/28 12:07:59;;;;;;;20.30;13.73;;;10.60;99.90;;;;;;4940900;29;20050;-57
2022/03/28 12:10:29;;;;;;;18.48;13.35;;;10.60;99.90;;;;;;4940337;29;20052;-58
2022/03/28 12:13:02;;;;;;;20.75;13.25;;;10.60;99.90;;;;;;4938912;29;20125;-57
2022/03/28 12:15:36;;;;;;;20.30;13.55;;;10.70;99.90;;;;;;4941718;29;20078;-58
2022/03/28 12:18:06;;;;;;;17.95;13.30;;;10.70;99.90;;;;;;4939615;29;20108;-57
2022/03/28 12:20:34;;;;;;;20.02;13.48;;;10.80;99.90;;;;;;4939238;29;20039;-57
2022/03/28 12:23:03;;;;;;;19.23;13.23;;;10.70;99.90;;;;;;4941200;29;20079;-57
2022/03/28 12:25:35;;;;;;;16.25;12.35;;;10.60;99.90;;;;;;4957611;29;20443;-57
2022/03/28 12:28:05;;;;;;;17.67;13.43;;;10.50;99.90;;;;;;4960481;28;20044;-57
2022/03/28 12:30:35;;;;;;;18.30;13.85;;;10.60;99.90;;;;;;4959237;28;20039;-57
2022/03/28 12:33:12;;;;;;;17.20;13.00;;;10.70;99.90;;;;;;4959983;28;20085;-58
2022/03/28 12:35:51;;;;;;;17.38;13.07;;;10.70;99.90;;;;;;4962042;28;20804;-57
2022/03/28 12:38:20;;;;;;;18.30;13.38;;;10.90;99.90;;;;;;4961555;28;20395;-58
2022/03/28 12:40:50;;;;;;;21.40;13.65;;;11.00;99.90;;;;;;4963972;28;20039;-59
2022/03/28 12:43:16;;;;;;;17.80;13.70;;;11.00;99.90;;;;;;4962962;28;20046;-55
2022/03/28 12:45:43;;;;;;;20.27;14.60;;;11.10;99.90;;;;;;4963952;29;20058;-58
2022/03/28 12:48:11;;;;;;;19.48;13.38;;;11.20;99.90;;;;;;4963168;29;20050;-57
2022/03/28 12:50:51;;;;;;;18.70;13.95;;;11.30;99.90;;;;;;4963322;28;20050;-57